Time;durP1;ratioP1;P1;durP2;ratioP2;P2;SDS_P1;SDS_P2;PMS_P1;PMS_P2;Temp;Humidity;BMP_temperature;BMP_pressure;BME280_temperature;BME280_humidity;BME280_pressure;Samples;Min_cycle;Max_cycle;Signal;HPM_P1;HPM_P2
2022/11/01 00:01:47;;;;;;;38.37;25.40;;;;;;;;;;4994504;28;20253;-77
2022/11/01 00:04:16;;;;;;;45.57;26.53;;;;;;;;;;4995052;28;20611;-77
2022/11/01 00:06:44;;;;;;;46.03;25.47;;;;;;;;;;4994646;28;20240;-77
2022/11/01 00:09:13;;;;;;;46.13;25.60;;;;;;;;;;4994476;28;20243;-77
2022/11/01 00:11:42;;;;;;;41.47;26.27;;;;;;;;;;4994481;28;20260;-77
2022/11/01 00:14:12;;;;;;;42.13;26.20;;;;;;;;;;4994650;28;20217;-77
2022/11/01 00:16:41;;;;;;;39.93;25.23;;;;;;;;;;4994810;28;20193;-77
2022/11/01 00:19:11;;;;;;;41.10;25.47;;;;;;;;;;4994824;28;20620;-77
2022/11/01 00:21:39;;;;;;;40.50;25.33;;;;;;;;;;4994885;28;20264;-77
2022/11/01 00:24:08;;;;;;;42.00;25.63;;;;;;;;;;4994670;28;20260;-77
2022/11/01 00:26:36;;;;;;;36.57;24.07;;;;;;;;;;4994585;28;20295;-77
2022/11/01 00:29:05;;;;;;;38.17;25.07;;;;;;;;;;4994494;28;20265;-77
2022/11/01 00:31:33;;;;;;;36.57;23.30;;;;;;;;;;4994201;28;20260;-77
2022/11/01 00:34:04;;;;;;;38.67;24.50;;;;;;;;;;4994504;28;20209;-77
2022/11/01 00:36:34;;;;;;;40.40;24.23;;;;;;;;;;4994255;28;20205;-77
2022/11/01 00:39:03;;;;;;;45.93;23.47;;;;;;;;;;4994547;28;20674;-77
2022/11/01 00:41:31;;;;;;;36.67;23.70;;;;;;;;;;4994257;28;20320;-77
2022/11/01 00:44:00;;;;;;;32.73;22.20;;;;;;;;;;4994156;28;20244;-77
2022/11/01 00:46:29;;;;;;;35.50;22.83;;;;;;;;;;4993866;28;20405;-77
2022/11/01 00:48:58;;;;;;;36.53;23.70;;;;;;;;;;4993878;28;20248;-77
2022/11/01 00:51:26;;;;;;;37.37;24.97;;;;;;;;;;4994249;28;20225;-77
2022/11/01 00:53:56;;;;;;;37.83;24.07;;;;;;;;;;4993927;28;20266;-77
2022/11/01 00:56:25;;;;;;;34.87;23.20;;;;;;;;;;4994184;28;20209;-77
2022/11/01 00:58:53;;;;;;;37.73;24.23;;;;;;;;;;4993472;28;20322;-77
2022/11/01 01:01:22;;;;;;;38.90;24.70;;;;;;;;;;4994098;28;20221;-77
2022/11/01 01:03:50;;;;;;;40.83;24.77;;;;;;;;;;4994060;28;20216;-77
2022/11/01 01:06:19;;;;;;;42.23;25.73;;;;;;;;;;4994075;28;20232;-77
2022/11/01 01:08:47;;;;;;;38.07;23.60;;;;;;;;;;4994119;28;20574;-77
2022/11/01 01:11:17;;;;;;;32.03;21.73;;;;;;;;;;4993877;28;20262;-77
2022/11/01 01:13:46;;;;;;;34.77;22.07;;;;;;;;;;4993910;28;20724;-77
2022/11/01 01:16:14;;;;;;;32.80;20.93;;;;;;;;;;4993864;28;20271;-77
2022/11/01 01:18:43;;;;;;;33.10;20.90;;;;;;;;;;4994071;28;20209;-77
2022/11/01 01:21:12;;;;;;;29.73;18.97;;;;;;;;;;4993945;28;20733;-77
2022/11/01 01:23:42;;;;;;;29.20;19.23;;;;;;;;;;4994173;28;20217;-77
2022/11/01 01:26:11;;;;;;;25.17;18.80;;;;;;;;;;4997752;28;20259;-77
2022/11/01 01:28:41;;;;;;;26.77;18.70;;;;;;;;;;4978463;28;20349;-77
2022/11/01 01:31:12;;;;;;;51.00;20.33;;;;;;;;;;4978366;28;20229;-77
2022/11/01 01:33:41;;;;;;;46.07;20.43;;;;;;;;;;4978352;28;20681;-76
2022/11/01 01:36:09;;;;;;;33.60;21.97;;;;;;;;;;4978273;28;20248;-77
2022/11/01 01:38:38;;;;;;;38.77;23.03;;;;;;;;;;4977828;28;20252;-77
2022/11/01 01:43:54;;;;;;;29.90;21.17;;;;;;;;;;4978563;28;20198;-77
2022/11/01 01:46:22;;;;;;;32.67;20.90;;;;;;;;;;4977821;28;20245;-77
2022/11/01 01:48:53;;;;;;;27.03;20.43;;;;;;;;;;4978027;28;20631;-77
2022/11/01 01:51:24;;;;;;;30.80;20.77;;;;;;;;;;4978040;28;20261;-77
2022/11/01 01:53:54;;;;;;;32.83;21.70;;;;;;;;;;4985874;28;20221;-77
2022/11/01 01:56:24;;;;;;;30.30;20.43;;;;;;;;;;4997327;28;20607;-77
2022/11/01 01:58:57;;;;;;;28.93;19.27;;;;;;;;;;4997097;28;20300;-77
2022/11/01 02:01:26;;;;;;;21.07;15.63;;;;;;;;;;4997060;28;20315;-77
2022/11/01 02:03:55;;;;;;;19.30;13.20;;;;;;;;;;4997395;28;20212;-77
2022/11/01 02:06:24;;;;;;;15.03;11.80;;;;;;;;;;4997301;28;20655;-77
2022/11/01 02:08:54;;;;;;;15.83;11.17;;;;;;;;;;4997173;28;20674;-77
2022/11/01 02:11:22;;;;;;;14.47;10.67;;;;;;;;;;4996712;28;20311;-77
2022/11/01 02:13:51;;;;;;;14.47;10.90;;;;;;;;;;4996876;28;20288;-77
2022/11/01 02:16:40;;;;;;;11.73;9.73;;;;;;;;;;4996864;28;20247;-77
2022/11/01 02:19:22;;;;;;;12.53;9.40;;;;;;;;;;4997151;28;20604;-77
2022/11/01 02:21:56;;;;;;;13.60;9.23;;;;;;;;;;4997269;28;20312;-77
2022/11/01 02:24:33;;;;;;;19.40;10.30;;;;;;;;;;4996813;28;20217;-77
2022/11/01 02:27:12;;;;;;;15.73;9.27;;;;;;;;;;4996628;28;20280;-77
2022/11/01 02:29:48;;;;;;;16.20;9.77;;;;;;;;;;4996897;28;20221;-77
2022/11/01 02:32:21;;;;;;;14.30;9.83;;;;;;;;;;4993612;28;20253;-77
2022/11/01 02:34:52;;;;;;;15.23;9.70;;;;;;;;;;4995972;28;20186;-77
2022/11/01 02:37:24;;;;;;;14.73;9.17;;;;;;;;;;4997009;28;20269;-77
2022/11/01 02:39:53;;;;;;;17.73;9.40;;;;;;;;;;4996691;28;20620;-77
2022/11/01 02:42:24;;;;;;;13.63;9.07;;;;;;;;;;4996304;28;20260;-76
2022/11/01 02:44:54;;;;;;;15.23;9.30;;;;;;;;;;4983387;28;20664;-77
2022/11/01 02:47:24;;;;;;;12.17;8.87;;;;;;;;;;4977372;28;20252;-77
2022/11/01 02:49:54;;;;;;;15.50;8.93;;;;;;;;;;4977002;28;20228;-77
2022/11/01 02:52:24;;;;;;;13.33;9.10;;;;;;;;;;4977149;28;20654;-77
2022/11/01 02:54:54;;;;;;;15.07;9.83;;;;;;;;;;4976526;28;20253;-77
2022/11/01 02:57:29;;;;;;;15.10;9.43;;;;;;;;;;4976791;28;20685;-77
2022/11/01 03:00:03;;;;;;;13.73;9.37;;;;;;;;;;4987352;28;20201;-77
2022/11/01 03:02:39;;;;;;;16.87;9.50;;;;;;;;;;4996081;28;20279;-77
2022/11/01 03:05:09;;;;;;;13.37;9.13;;;;;;;;;;4995917;28;20284;-76
2022/11/01 03:07:39;;;;;;;14.80;9.20;;;;;;;;;;4995805;28;20233;-76
2022/11/01 03:10:08;;;;;;;19.70;9.40;;;;;;;;;;4995748;28;20296;-77
2022/11/01 03:12:41;;;;;;;12.87;9.77;;;;;;;;;;4995830;28;20725;-76
2022/11/01 03:15:19;;;;;;;12.00;9.23;;;;;;;;;;4995963;28;20221;-76
2022/11/01 03:17:51;;;;;;;14.30;9.43;;;;;;;;;;4996038;28;20709;-76
2022/11/01 03:20:22;;;;;;;14.53;9.70;;;;;;;;;;4995356;28;20267;-76
2022/11/01 03:22:53;;;;;;;11.60;9.07;;;;;;;;;;4995697;28;20666;-76
2022/11/01 03:25:39;;;;;;;11.90;9.00;;;;;;;;;;4995807;28;20276;-76
2022/11/01 03:28:09;;;;;;;12.37;8.40;;;;;;;;;;4995517;28;20196;-76
2022/11/01 03:30:41;;;;;;;14.00;8.97;;;;;;;;;;4995203;28;20283;-77
2022/11/01 03:33:12;;;;;;;13.83;8.80;;;;;;;;;;4995670;28;20231;-76
2022/11/01 03:35:43;;;;;;;11.50;8.43;;;;;;;;;;4995564;28;20685;-76
2022/11/01 03:38:14;;;;;;;13.30;7.70;;;;;;;;;;4995580;28;20209;-76
2022/11/01 03:40:45;;;;;;;13.10;8.50;;;;;;;;;;4995192;28;20312;-76
2022/11/01 03:43:16;;;;;;;12.70;7.50;;;;;;;;;;4995507;28;20280;-77
2022/11/01 03:45:44;;;;;;;12.20;8.20;;;;;;;;;;4995327;28;20677;-77
2022/11/01 03:48:14;;;;;;;18.10;8.43;;;;;;;;;;4990045;28;20254;-77
2022/11/01 03:50:47;;;;;;;12.57;7.60;;;;;;;;;;4975484;28;20320;-77
2022/11/01 03:53:15;;;;;;;13.37;7.23;;;;;;;;;;4978582;28;20248;-76
2022/11/01 03:55:44;;;;;;;13.73;7.93;;;;;;;;;;4995347;28;20608;-76
2022/11/01 03:58:12;;;;;;;10.47;7.70;;;;;;;;;;4995263;28;20248;-76
2022/11/01 04:00:42;;;;;;;13.70;8.00;;;;;;;;;;4995039;28;20260;-76
2022/11/01 04:03:11;;;;;;;13.00;7.97;;;;;;;;;;4995417;28;20209;-76
2022/11/01 04:05:41;;;;;;;11.97;7.77;;;;;;;;;;4994752;28;20296;-76
2022/11/01 04:08:11;;;;;;;11.80;7.23;;;;;;;;;;4994698;28;20280;-76
2022/11/01 04:10:39;;;;;;;14.23;8.23;;;;;;;;;;4994696;28;20271;-76
2022/11/01 04:13:07;;;;;;;12.45;7.80;;;;;;;;;;4994884;28;20729;-76
2022/11/01 04:21:13;;;;;;;9.67;7.23;;;;;;;;;;4994389;28;20225;-76
2022/11/01 04:23:41;;;;;;;11.07;7.33;;;;;;;;;;4994396;28;20288;-76
2022/11/01 04:26:11;;;;;;;12.00;7.20;;;;;;;;;;4994358;28;20209;-76
2022/11/01 04:28:40;;;;;;;10.63;7.20;;;;;;;;;;4994303;28;20296;-76
2022/11/01 04:31:08;;;;;;;12.93;7.80;;;;;;;;;;4994172;28;20315;-76
2022/11/01 04:33:37;;;;;;;11.87;7.50;;;;;;;;;;4994576;28;20236;-76
2022/11/01 04:36:06;;;;;;;11.70;7.50;;;;;;;;;;4994469;28;20296;-76
2022/11/01 04:38:35;;;;;;;10.87;8.07;;;;;;;;;;4994488;28;20682;-77
2022/11/01 04:41:04;;;;;;;11.83;7.47;;;;;;;;;;4994152;28;20249;-76
2022/11/01 04:43:32;;;;;;;15.13;7.97;;;;;;;;;;4993555;28;20240;-76
2022/11/01 04:46:01;;;;;;;13.37;8.00;;;;;;;;;;4994141;28;20682;-76
2022/11/01 04:48:29;;;;;;;14.47;8.10;;;;;;;;;;4993642;28;20205;-77
2022/11/01 04:51:00;;;;;;;10.57;6.87;;;;;;;;;;4994161;28;20762;-77
2022/11/01 04:53:29;;;;;;;11.97;8.07;;;;;;;;;;4994079;28;20295;-77
2022/11/01 04:55:59;;;;;;;11.83;8.17;;;;;;;;;;4994284;28;20205;-77
2022/11/01 04:58:28;;;;;;;10.38;7.60;;;;;;;;;;4993738;28;20301;-77
2022/11/01 05:00:56;;;;;;;11.03;7.00;;;;;;;;;;4993822;28;20228;-77
2022/11/01 05:03:25;;;;;;;9.80;7.33;;;;;;;;;;4993742;28;20198;-77
2022/11/01 05:05:53;;;;;;;10.40;7.10;;;;;;;;;;4993738;28;20611;-78
2022/11/01 05:08:22;;;;;;;12.48;6.90;;;;;;;;;;4994006;28;20291;-78
2022/11/01 05:10:53;;;;;;;8.50;7.00;;;;;;;;;;4993601;28;20640;-78
2022/11/01 05:13:23;;;;;;;12.43;7.00;;;;;;;;;;4993190;28;20626;-77
2022/11/01 05:15:51;;;;;;;10.77;6.60;;;;;;;;;;4994149;28;20292;-77
2022/11/01 05:18:42;;;;;;;9.88;6.80;;;;;;;;;;4993133;28;20673;-78
2022/11/01 05:21:11;;;;;;;10.70;7.17;;;;;;;;;;4993348;28;20221;-77
2022/11/01 05:23:39;;;;;;;12.07;6.95;;;;;;;;;;4993648;28;20251;-77
2022/11/01 05:26:08;;;;;;;9.27;6.80;;;;;;;;;;4993772;28;20264;-78
2022/11/01 05:28:37;;;;;;;8.95;6.80;;;;;;;;;;4993497;28;20296;-77
2022/11/01 05:31:06;;;;;;;9.90;7.03;;;;;;;;;;4993583;28;20655;-77
2022/11/01 05:33:34;;;;;;;9.70;6.53;;;;;;;;;;4992916;28;20303;-78
2022/11/01 05:36:03;;;;;;;12.73;6.97;;;;;;;;;;4993766;28;20287;-77
2022/11/01 05:38:31;;;;;;;11.47;7.03;;;;;;;;;;4993511;28;20635;-77
2022/11/01 05:41:02;;;;;;;9.73;7.60;;;;;;;;;;4993810;28;20689;-77
2022/11/01 05:43:30;;;;;;;31.70;8.23;;;;;;;;;;4993705;28;20205;-77
2022/11/01 05:46:03;;;;;;;12.37;6.83;;;;;;;;;;4984465;28;20671;-77
2022/11/01 05:48:32;;;;;;;11.03;7.10;;;;;;;;;;4982398;28;20647;-77
2022/11/01 05:51:00;;;;;;;11.97;7.33;;;;;;;;;;4993705;28;20717;-77
2022/11/01 05:53:29;;;;;;;9.90;7.43;;;;;;;;;;4993383;28;20264;-77
2022/11/01 05:55:58;;;;;;;11.80;7.27;;;;;;;;;;4993498;28;20237;-77
2022/11/01 05:58:27;;;;;;;13.47;7.53;;;;;;;;;;4993848;28;20241;-78
2022/11/01 06:00:58;;;;;;;49.23;9.20;;;;;;;;;;4992890;28;20217;-78
2022/11/01 06:03:28;;;;;;;11.13;7.37;;;;;;;;;;4993422;28;20626;-77
2022/11/01 06:05:56;;;;;;;10.17;7.47;;;;;;;;;;4992869;28;20257;-77
2022/11/01 06:08:25;;;;;;;12.57;7.50;;;;;;;;;;4993418;28;20628;-77
2022/11/01 06:10:54;;;;;;;14.10;7.40;;;;;;;;;;4994646;28;20327;-77
2022/11/01 06:13:23;;;;;;;8.53;6.80;;;;;;;;;;4996995;28;20312;-77
2022/11/01 06:15:51;;;;;;;11.53;7.60;;;;;;;;;;4978355;28;20667;-77
2022/11/01 06:18:19;;;;;;;10.30;7.40;;;;;;;;;;4977411;28;20221;-77
2022/11/01 06:20:49;;;;;;;10.40;7.33;;;;;;;;;;4977496;28;20742;-77
2022/11/01 06:23:18;;;;;;;11.30;8.00;;;;;;;;;;4980713;28;20647;-76
2022/11/01 06:25:46;;;;;;;12.40;7.57;;;;;;;;;;4996596;28;20284;-77
2022/11/01 06:28:15;;;;;;;10.97;7.37;;;;;;;;;;4996303;28;20308;-77
2022/11/01 06:30:43;;;;;;;10.57;7.47;;;;;;;;;;4996784;28;20287;-77
2022/11/01 06:33:12;;;;;;;10.83;7.10;;;;;;;;;;4985024;28;20269;-77
2022/11/01 06:35:40;;;;;;;10.47;7.30;;;;;;;;;;4976878;28;20679;-77
2022/11/01 06:38:10;;;;;;;13.17;7.43;;;;;;;;;;4976777;28;20241;-77
2022/11/01 06:40:39;;;;;;;10.97;7.57;;;;;;;;;;4994824;28;20221;-77
2022/11/01 06:43:07;;;;;;;10.83;7.77;;;;;;;;;;4995439;28;20280;-77
2022/11/01 06:45:36;;;;;;;11.03;7.43;;;;;;;;;;4996274;28;20245;-76
2022/11/01 06:48:04;;;;;;;10.83;7.60;;;;;;;;;;4996038;28;20618;-76
2022/11/01 06:50:33;;;;;;;9.33;7.07;;;;;;;;;;4996206;28;20634;-77
2022/11/01 06:53:02;;;;;;;10.63;7.50;;;;;;;;;;4995967;28;20304;-77
2022/11/01 06:55:32;;;;;;;11.97;7.23;;;;;;;;;;4995982;28;20972;-77
2022/11/01 06:58:02;;;;;;;8.33;6.87;;;;;;;;;;4995542;28;20198;-77
2022/11/01 07:00:31;;;;;;;9.50;7.03;;;;;;;;;;4995560;28;20228;-77
2022/11/01 07:03:00;;;;;;;10.03;7.30;;;;;;;;;;4995918;28;20288;-77
2022/11/01 07:05:29;;;;;;;9.70;7.20;;;;;;;;;;4990670;28;20252;-80
2022/11/01 07:08:04;;;;;;;10.77;7.17;;;;;;;;;;4977607;28;20647;-77
2022/11/01 07:10:36;;;;;;;10.73;7.13;;;;;;;;;;4995890;28;20316;-76
2022/11/01 07:13:05;;;;;;;9.50;7.43;;;;;;;;;;4976302;28;20300;-76
2022/11/01 07:15:34;;;;;;;8.93;6.30;;;;;;;;;;4980796;28;20236;-76
2022/11/01 07:18:04;;;;;;;8.27;6.43;;;;;;;;;;4995676;28;20225;-76
2022/11/01 07:20:40;;;;;;;8.87;5.37;;;;;;;;;;4984733;28;20225;-77
2022/11/01 07:23:10;;;;;;;10.83;5.47;;;;;;;;;;4977133;28;20231;-77
2022/11/01 07:25:40;;;;;;;7.23;5.10;;;;;;;;;;4995704;28;20268;-77
2022/11/01 07:28:09;;;;;;;10.83;5.50;;;;;;;;;;4995658;28;20240;-77
2022/11/01 07:30:38;;;;;;;6.77;4.60;;;;;;;;;;4995293;28;20257;-77
2022/11/01 07:33:06;;;;;;;7.73;5.07;;;;;;;;;;4995532;28;20267;-76
2022/11/01 07:35:35;;;;;;;5.80;4.60;;;;;;;;;;4994702;28;20284;-76
2022/11/01 07:38:05;;;;;;;9.87;5.17;;;;;;;;;;4994232;28;20356;-77
2022/11/01 07:40:43;;;;;;;7.07;4.50;;;;;;;;;;4994919;28;20227;-78
2022/11/01 07:43:11;;;;;;;11.60;4.60;;;;;;;;;;4994027;28;20652;-77
2022/11/01 07:45:40;;;;;;;6.43;4.45;;;;;;;;;;4975554;28;20237;-77
2022/11/01 07:48:10;;;;;;;4.73;4.27;;;;;;;;;;4974853;28;20289;-77
2022/11/01 07:50:40;;;;;;;8.88;4.18;;;;;;;;;;4995186;28;20221;-77
2022/11/01 07:53:10;;;;;;;7.82;4.47;;;;;;;;;;4994089;28;20284;-77
2022/11/01 07:55:39;;;;;;;7.93;3.95;;;;;;;;;;4983836;28;20304;-78
2022/11/01 07:58:09;;;;;;;6.40;3.60;;;;;;;;;;4995790;28;20733;-77
2022/11/01 08:00:38;;;;;;;6.22;3.75;;;;;;;;;;4994647;28;20271;-77
2022/11/01 08:03:08;;;;;;;5.40;3.70;;;;;;;;;;4994830;28;20287;-77
2022/11/01 08:05:36;;;;;;;6.95;3.40;;;;;;;;;;4994704;28;20690;-77
2022/11/01 08:08:05;;;;;;;7.07;3.80;;;;;;;;;;4994560;28;20297;-76
2022/11/01 08:10:35;;;;;;;6.10;3.60;;;;;;;;;;4990028;28;20809;-76
2022/11/01 08:13:04;;;;;;;6.80;3.80;;;;;;;;;;4994791;28;20263;-76
2022/11/01 08:15:34;;;;;;;6.45;3.78;;;;;;;;;;4994763;28;20288;-76
2022/11/01 08:18:02;;;;;;;6.03;3.60;;;;;;;;;;4994593;28;20213;-77
2022/11/01 08:20:31;;;;;;;8.98;3.85;;;;;;;;;;4994763;28;20229;-77
2022/11/01 08:23:00;;;;;;;6.75;3.85;;;;;;;;;;4993897;28;20570;-77
2022/11/01 08:25:29;;;;;;;8.93;3.92;;;;;;;;;;4986919;28;20233;-77
2022/11/01 08:28:01;;;;;;;5.60;3.47;;;;;;;;;;4994712;28;20660;-77
2022/11/01 08:30:30;;;;;;;6.15;3.63;;;;;;;;;;4994763;28;20332;-76
2022/11/01 08:33:00;;;;;;;6.32;3.63;;;;;;;;;;5013751;28;20258;-77
2022/11/01 08:35:29;;;;;;;5.97;3.10;;;;;;;;;;4995887;28;20203;-77
2022/11/01 08:37:58;;;;;;;5.18;3.53;;;;;;;;;;4993358;28;20209;-77
2022/11/01 08:40:28;;;;;;;5.78;3.55;;;;;;;;;;4985670;28;20209;-79
2022/11/01 08:42:57;;;;;;;5.35;3.13;;;;;;;;;;4994098;28;20297;-76
2022/11/01 08:45:25;;;;;;;6.47;3.20;;;;;;;;;;4990012;28;20259;-77
2022/11/01 08:47:58;;;;;;;6.03;3.55;;;;;;;;;;4994265;28;20283;-77
2022/11/01 08:50:28;;;;;;;5.60;3.20;;;;;;;;;;4993610;28;20271;-78
2022/11/01 08:52:56;;;;;;;6.28;3.50;;;;;;;;;;4985036;28;20209;-76
2022/11/01 08:55:25;;;;;;;6.43;3.40;;;;;;;;;;4992960;28;20255;-76
2022/11/01 08:57:53;;;;;;;5.45;3.15;;;;;;;;;;4993796;28;20677;-77
2022/11/01 09:00:22;;;;;;;4.55;3.30;;;;;;;;;;5006876;28;20243;-77
2022/11/01 09:02:50;;;;;;;5.65;3.35;;;;;;;;;;4992505;28;20710;-76
2022/11/01 09:05:21;;;;;;;5.43;3.30;;;;;;;;;;4976452;28;20276;-77
2022/11/01 09:07:56;;;;;;;5.50;3.70;;;;;;;;;;4990424;28;20374;-76
2022/11/01 09:10:25;;;;;;;4.80;3.00;;;;;;;;;;4987128;28;20232;-77
2022/11/01 09:12:53;;;;;;;6.20;3.25;;;;;;;;;;4985261;28;20710;-77
2022/11/01 09:15:22;;;;;;;4.55;3.10;;;;;;;;;;4992687;28;20225;-77
2022/11/01 09:17:51;;;;;;;3.72;3.20;;;;;;;;;;4992049;28;20693;-79
2022/11/01 09:20:20;;;;;;;6.30;3.30;;;;;;;;;;4992819;28;20205;-77
2022/11/01 09:22:52;;;;;;;3.28;2.97;;;;;;;;;;4992893;28;20232;-78
2022/11/01 09:25:20;;;;;;;3.50;2.60;;;;;;;;;;4992630;28;20217;-76
2022/11/01 09:27:49;;;;;;;3.60;2.50;;;;;;;;;;4992583;28;20292;-76
2022/11/01 09:30:17;;;;;;;4.70;2.47;;;;;;;;;;4992854;28;20240;-76
2022/11/01 09:32:46;;;;;;;2.10;1.90;;;;;;;;;;4992823;28;20259;-76
2022/11/01 09:35:14;;;;;;;4.78;2.20;;;;;;;;;;4993136;28;20256;-77
2022/11/01 09:37:43;;;;;;;2.40;1.58;;;;;;;;;;4992848;28;20303;-77
2022/11/01 09:40:14;;;;;;;3.45;1.65;;;;;;;;;;4992963;28;20622;-76
2022/11/01 09:42:44;;;;;;;6.45;1.60;;;;;;;;;;4992425;28;20639;-76
2022/11/01 09:45:16;;;;;;;4.22;1.60;;;;;;;;;;4993409;28;20228;-76
2022/11/01 09:47:47;;;;;;;2.22;1.58;;;;;;;;;;4996907;28;20336;-77
2022/11/01 09:50:19;;;;;;;3.75;1.58;;;;;;;;;;4996903;28;20478;-76
2022/11/01 09:52:47;;;;;;;2.45;1.50;;;;;;;;;;4996493;28;20212;-76
2022/11/01 09:55:18;;;;;;;4.85;1.38;;;;;;;;;;4990312;28;20324;-76
2022/11/01 09:57:52;;;;;;;2.20;1.40;;;;;;;;;;4993780;28;20292;-76
2022/11/01 10:00:22;;;;;;;2.85;1.30;;;;;;;;;;4994847;28;20283;-76
2022/11/01 10:03:17;;;;;;;2.35;1.35;;;;;;;;;;4995929;28;20292;-76
2022/11/01 10:05:47;;;;;;;2.97;1.30;;;;;;;;;;4996212;28;20244;-77
2022/11/01 10:08:20;;;;;;;2.13;1.30;;;;;;;;;;4996348;28;20268;-76
2022/11/01 10:10:53;;;;;;;1.75;1.27;;;;;;;;;;5006736;28;20228;-76
2022/11/01 10:13:29;;;;;;;5.28;1.50;;;;;;;;;;4984974;28;20237;-76
2022/11/01 10:16:01;;;;;;;4.50;1.48;;;;;;;;;;4996750;28;20689;-77
2022/11/01 10:18:31;;;;;;;3.03;1.23;;;;;;;;;;4996049;28;20202;-78
2022/11/01 10:21:01;;;;;;;2.67;1.38;;;;;;;;;;4996401;28;20225;-77
2022/11/01 10:23:36;;;;;;;2.80;1.10;;;;;;;;;;4996519;28;20288;-77
2022/11/01 10:26:07;;;;;;;3.53;1.30;;;;;;;;;;4995797;28;20224;-77
2022/11/01 10:28:42;;;;;;;4.15;1.60;;;;;;;;;;4996753;28;20293;-77
2022/11/01 10:31:13;;;;;;;3.70;1.42;;;;;;;;;;4996193;28;20252;-77
2022/11/01 10:33:44;;;;;;;7.82;1.65;;;;;;;;;;4996540;28;20535;-76
2022/11/01 10:36:15;;;;;;;5.50;1.60;;;;;;;;;;4995931;28;20263;-77
2022/11/01 10:38:46;;;;;;;7.03;1.67;;;;;;;;;;4995622;28;20233;-77
2022/11/01 10:41:41;;;;;;;7.32;1.45;;;;;;;;;;4995780;28;20247;-77
2022/11/01 10:44:13;;;;;;;6.63;1.55;;;;;;;;;;4996265;28;20208;-76
2022/11/01 10:46:44;;;;;;;4.00;1.60;;;;;;;;;;4995764;28;20229;-76
2022/11/01 10:49:18;;;;;;;4.57;1.88;;;;;;;;;;4996188;28;20224;-76
2022/11/01 10:51:48;;;;;;;6.82;1.70;;;;;;;;;;4996082;28;20653;-76
2022/11/01 10:54:18;;;;;;;6.50;1.90;;;;;;;;;;4994636;28;20678;-76
2022/11/01 10:56:50;;;;;;;5.90;1.80;;;;;;;;;;4995229;28;20669;-77
2022/11/01 10:59:21;;;;;;;6.95;1.80;;;;;;;;;;4995740;28;20280;-76
2022/11/01 11:01:50;;;;;;;7.45;1.80;;;;;;;;;;4995462;28;20263;-77
2022/11/01 11:04:21;;;;;;;5.38;1.70;;;;;;;;;;4996048;28;20296;-76
2022/11/01 11:06:50;;;;;;;8.20;1.65;;;;;;;;;;4995285;28;20956;-76
2022/11/01 11:09:23;;;;;;;6.18;1.83;;;;;;;;;;4991498;28;20210;-76
2022/11/01 11:11:54;;;;;;;4.05;1.50;;;;;;;;;;4976593;28;20329;-76
2022/11/01 11:14:22;;;;;;;4.28;1.50;;;;;;;;;;4991299;28;20229;-76
2022/11/01 11:16:53;;;;;;;11.68;1.90;;;;;;;;;;4994569;28;20232;-76
2022/11/01 11:19:25;;;;;;;8.18;1.70;;;;;;;;;;4994949;28;20284;-76
2022/11/01 11:21:54;;;;;;;7.10;1.73;;;;;;;;;;4986382;28;20288;-77
2022/11/01 11:24:24;;;;;;;8.05;2.15;;;;;;;;;;4987453;28;20239;-76
2022/11/01 11:26:55;;;;;;;5.68;1.50;;;;;;;;;;4995536;28;20205;-76
2022/11/01 11:29:31;;;;;;;5.13;1.73;;;;;;;;;;4995508;28;20265;-75
2022/11/01 11:32:00;;;;;;;6.30;1.60;;;;;;;;;;4995028;28;20636;-76
2022/11/01 11:34:30;;;;;;;8.07;1.67;;;;;;;;;;4993744;28;20291;-77
2022/11/01 11:36:59;;;;;;;5.85;1.85;;;;;;;;;;4995019;28;20248;-76
2022/11/01 11:39:28;;;;;;;6.00;1.73;;;;;;;;;;4993078;28;20645;-76
2022/11/01 11:42:11;;;;;;;5.15;1.80;;;;;;;;;;4990554;28;20272;-76
2022/11/01 11:44:41;;;;;;;6.35;1.80;;;;;;;;;;4986344;28;20197;-78
2022/11/01 11:47:23;;;;;;;6.22;2.10;;;;;;;;;;4995293;28;20284;-77
2022/11/01 11:49:52;;;;;;;4.82;1.88;;;;;;;;;;4994229;28;20206;-76
2022/11/01 11:52:23;;;;;;;7.63;2.22;;;;;;;;;;4995601;28;20272;-77
2022/11/01 11:54:56;;;;;;;6.78;2.20;;;;;;;;;;4984414;28;20235;-76
2022/11/01 11:57:28;;;;;;;7.00;2.00;;;;;;;;;;4995605;28;20264;-76
2022/11/01 11:59:59;;;;;;;6.30;1.95;;;;;;;;;;4993802;28;20240;-76
2022/11/01 12:02:28;;;;;;;7.50;1.92;;;;;;;;;;4997082;28;20260;-76
2022/11/01 12:04:58;;;;;;;10.60;2.30;;;;;;;;;;4983276;28;20210;-76
2022/11/01 12:07:29;;;;;;;9.02;2.03;;;;;;;;;;4981665;28;20658;-77
2022/11/01 12:10:01;;;;;;;3.83;1.83;;;;;;;;;;4993662;28;20205;-76
2022/11/01 12:12:32;;;;;;;6.40;1.88;;;;;;;;;;4996946;28;20233;-76
2022/11/01 12:15:02;;;;;;;6.78;2.10;;;;;;;;;;4997297;28;20193;-76
2022/11/01 12:17:35;;;;;;;5.53;2.08;;;;;;;;;;4997832;28;20209;-75
2022/11/01 12:20:14;;;;;;;7.22;1.92;;;;;;;;;;4990536;28;20213;-78
2022/11/01 12:22:45;;;;;;;5.72;2.13;;;;;;;;;;4991364;28;20209;-76
2022/11/01 12:25:16;;;;;;;5.95;2.10;;;;;;;;;;4997465;28;20201;-75
2022/11/01 12:27:49;;;;;;;9.57;2.15;;;;;;;;;;4995872;28;20216;-76
2022/11/01 12:30:20;;;;;;;9.20;2.38;;;;;;;;;;4994668;28;20636;-76
2022/11/01 12:32:50;;;;;;;8.05;2.38;;;;;;;;;;4987533;28;20217;-76
2022/11/01 12:35:22;;;;;;;7.38;2.30;;;;;;;;;;4993618;28;20240;-76
2022/11/01 12:37:54;;;;;;;6.70;2.17;;;;;;;;;;4994656;28;20197;-76
2022/11/01 12:40:27;;;;;;;9.15;2.50;;;;;;;;;;4995599;28;20201;-76
2022/11/01 12:43:02;;;;;;;7.97;2.10;;;;;;;;;;4994660;28;20205;-76
2022/11/01 12:45:33;;;;;;;7.28;2.20;;;;;;;;;;4995655;28;20204;-76
2022/11/01 12:48:04;;;;;;;5.25;2.00;;;;;;;;;;4992770;28;20693;-75
2022/11/01 12:50:37;;;;;;;7.32;2.20;;;;;;;;;;4996321;28;20682;-76
2022/11/01 12:53:22;;;;;;;6.57;2.05;;;;;;;;;;4993771;28;20268;-76
2022/11/01 12:55:51;;;;;;;6.40;2.33;;;;;;;;;;4994689;28;20228;-76
2022/11/01 12:58:23;;;;;;;7.30;2.25;;;;;;;;;;4995674;28;20209;-76
2022/11/01 13:01:03;;;;;;;9.75;2.55;;;;;;;;;;4994502;28;20228;-77
2022/11/01 13:03:39;;;;;;;8.52;2.30;;;;;;;;;;4989395;28;20264;-76
2022/11/01 13:06:12;;;;;;;6.60;2.30;;;;;;;;;;4991288;28;20196;-77
2022/11/01 13:08:44;;;;;;;7.25;2.30;;;;;;;;;;4993791;28;20204;-76
2022/11/01 13:11:16;;;;;;;7.03;2.55;;;;;;;;;;4994126;28;20244;-75
2022/11/01 13:13:49;;;;;;;9.25;2.55;;;;;;;;;;4994216;28;20201;-75
2022/11/01 13:16:20;;;;;;;8.70;2.30;;;;;;;;;;4995567;28;20565;-76
2022/11/01 13:18:53;;;;;;;8.35;2.00;;;;;;;;;;4993822;28;20211;-76
2022/11/01 13:21:28;;;;;;;9.80;2.30;;;;;;;;;;4999488;28;20223;-75
2022/11/01 13:23:59;;;;;;;7.13;2.15;;;;;;;;;;4998196;28;20235;-75
2022/11/01 13:26:31;;;;;;;6.93;2.17;;;;;;;;;;5000767;28;20236;-75
2022/11/01 13:29:07;;;;;;;6.75;1.98;;;;;;;;;;5000673;28;20216;-77
2022/11/01 13:31:44;;;;;;;8.52;2.40;;;;;;;;;;4999629;28;20686;-76
2022/11/01 13:34:19;;;;;;;9.48;2.00;;;;;;;;;;4997845;28;20271;-77
2022/11/01 13:36:51;;;;;;;8.75;2.10;;;;;;;;;;4999048;28;20247;-76
2022/11/01 13:39:24;;;;;;;10.07;2.53;;;;;;;;;;4992316;28;20261;-76
2022/11/01 13:41:57;;;;;;;10.63;2.35;;;;;;;;;;4999204;28;20233;-75
2022/11/01 13:44:29;;;;;;;7.88;2.35;;;;;;;;;;4998069;28;20225;-76
2022/11/01 13:47:06;;;;;;;7.18;2.33;;;;;;;;;;5001300;28;20212;-75
2022/11/01 13:49:56;;;;;;;8.27;2.60;;;;;;;;;;4997126;28;20201;-76
2022/11/01 13:52:27;;;;;;;7.45;2.17;;;;;;;;;;4999935;28;20307;-76
2022/11/01 13:54:58;;;;;;;6.35;2.08;;;;;;;;;;5003151;28;20218;-76
2022/11/01 13:57:27;;;;;;;7.72;2.28;;;;;;;;;;4978459;28;20647;-77
2022/11/01 13:59:59;;;;;;;5.85;2.10;;;;;;;;;;4996255;28;20291;-76
2022/11/01 14:02:48;;;;;;;9.68;2.20;;;;;;;;;;4996769;28;20809;-76
2022/11/01 14:05:17;;;;;;;10.15;2.20;;;;;;;;;;4997041;28;20240;-76
2022/11/01 14:08:05;;;;;;;7.22;2.38;;;;;;;;;;4996902;28;20279;-76
2022/11/01 14:10:47;;;;;;;7.50;2.10;;;;;;;;;;4995910;28;20308;-75
2022/11/01 14:13:18;;;;;;;7.50;2.25;;;;;;;;;;4996768;28;20201;-76
2022/11/01 14:16:02;;;;;;;8.25;2.35;;;;;;;;;;4995751;28;20202;-77
2022/11/01 14:18:52;;;;;;;8.65;2.00;;;;;;;;;;4995498;28;20233;-78
2022/11/01 14:21:30;;;;;;;7.25;2.33;;;;;;;;;;4987457;28;20287;-76
2022/11/01 14:24:00;;;;;;;5.82;2.05;;;;;;;;;;4988419;28;20210;-77
2022/11/01 14:26:46;;;;;;;10.48;2.50;;;;;;;;;;4990464;28;20209;-76
2022/11/01 14:29:15;;;;;;;9.02;2.38;;;;;;;;;;4986642;28;20209;-77
2022/11/01 14:31:45;;;;;;;11.18;2.20;;;;;;;;;;4994722;28;20304;-77
2022/11/01 14:34:30;;;;;;;7.78;1.90;;;;;;;;;;4996061;28;20634;-77
2022/11/01 14:37:02;;;;;;;8.63;2.33;;;;;;;;;;4996098;28;20255;-76
2022/11/01 14:39:35;;;;;;;7.15;2.05;;;;;;;;;;4996751;28;20185;-76
2022/11/01 14:42:06;;;;;;;6.68;2.30;;;;;;;;;;4996467;28;20592;-76
2022/11/01 14:44:36;;;;;;;5.68;2.13;;;;;;;;;;4995885;28;20233;-77
2022/11/01 14:47:05;;;;;;;8.15;2.30;;;;;;;;;;4995953;28;20284;-77
2022/11/01 14:49:47;;;;;;;5.55;1.88;;;;;;;;;;5009269;28;20238;-76
2022/11/01 14:52:20;;;;;;;7.75;2.20;;;;;;;;;;4996389;28;20256;-76
2022/11/01 14:54:51;;;;;;;6.53;2.20;;;;;;;;;;4995619;28;20241;-77
2022/11/01 14:57:24;;;;;;;8.98;2.40;;;;;;;;;;4988916;28;20304;-76
2022/11/01 14:59:53;;;;;;;6.15;1.80;;;;;;;;;;4980173;28;20241;-77
2022/11/01 15:02:22;;;;;;;6.00;1.80;;;;;;;;;;4995913;28;20261;-76
2022/11/01 15:04:57;;;;;;;5.85;2.35;;;;;;;;;;4995582;28;20213;-76
2022/11/01 15:07:27;;;;;;;7.38;2.35;;;;;;;;;;4995722;28;20181;-76